Terminal Aerodrome Forecast
Issued by NWS

Home | Current Version | Previous Version | Text Only | Print | Product List | Glossary On
Versions: 1 2 3 4 5 6 7 8 9 10 11 12 13 14
748
FTUS46 KSGX 251559 AAA
TAFONT
TAF AMD
KONT 251559Z 2516/2618 VRB05KT P6SM VCSH BKN017
     FM251900 24007KT P6SM VCSH BKN020 BKN040
     FM252100 25012KT P6SM VCSH BKN025 BKN040
     FM260300 25008KT P6SM SCT035
     FM260600 VRB05KT P6SM FEW015
     FM261100 VRB05KT P6SM BKN015
     FM261600 VRB05KT P6SM SCT015=

USA.gov is the U.S. government's official web portal to all federal, state and local government web resources and services.